sensor_id;sensor_type;location;lat;lon;timestamp;temperature;humidity
5011;DHT22;2524;54.364;10.072;2023-07-31T00:02:23;16.00;99.90
5011;DHT22;2524;54.364;10.072;2023-07-31T00:04:48;16.00;99.90
5011;DHT22;2524;54.364;10.072;2023-07-31T00:07:14;16.00;99.90
5011;DHT22;2524;54.364;10.072;2023-07-31T00:09:40;16.00;99.90
5011;DHT22;2524;54.364;10.072;2023-07-31T00:12:06;16.00;99.90
5011;DHT22;2524;54.364;10.072;2023-07-31T00:14:31;16.00;99.90
5011;DHT22;2524;54.364;10.072;2023-07-31T00:16:57;16.10;99.90
5011;DHT22;2524;54.364;10.072;2023-07-31T00:19:22;16.00;99.90
5011;DHT22;2524;54.364;10.072;2023-07-31T00:21:48;16.00;99.90
5011;DHT22;2524;54.364;10.072;2023-07-31T00:24:13;16.00;99.90
5011;DHT22;2524;54.364;10.072;2023-07-31T00:26:39;16.00;99.90
5011;DHT22;2524;54.364;10.072;2023-07-31T00:29:04;15.90;99.90
5011;DHT22;2524;54.364;10.072;2023-07-31T00:31:30;15.90;99.90
5011;DHT22;2524;54.364;10.072;2023-07-31T00:33:55;15.90;99.90
5011;DHT22;2524;54.364;10.072;2023-07-31T00:36:21;15.90;99.90
5011;DHT22;2524;54.364;10.072;2023-07-31T00:38:47;15.80;99.90
5011;DHT22;2524;54.364;10.072;2023-07-31T00:41:12;15.80;99.90
5011;DHT22;2524;54.364;10.072;2023-07-31T00:43:38;15.90;99.90
5011;DHT22;2524;54.364;10.072;2023-07-31T00:46:03;15.80;99.90
5011;DHT22;2524;54.364;10.072;2023-07-31T00:48:30;15.80;99.90
5011;DHT22;2524;54.364;10.072;2023-07-31T00:50:55;15.90;99.90
5011;DHT22;2524;54.364;10.072;2023-07-31T00:53:21;15.90;99.90
5011;DHT22;2524;54.364;10.072;2023-07-31T00:55:46;15.80;99.90
5011;DHT22;2524;54.364;10.072;2023-07-31T00:58:12;15.80;99.90
5011;DHT22;2524;54.364;10.072;2023-07-31T01:00:38;15.80;99.90
5011;DHT22;2524;54.364;10.072;2023-07-31T01:03:03;15.70;99.90
5011;DHT22;2524;54.364;10.072;2023-07-31T01:08:40;15.70;99.90
5011;DHT22;2524;54.364;10.072;2023-07-31T01:11:17;15.70;99.90
5011;DHT22;2524;54.364;10.072;2023-07-31T01:13:45;15.70;99.90
5011;DHT22;2524;54.364;10.072;2023-07-31T01:16:11;15.60;99.90
5011;DHT22;2524;54.364;10.072;2023-07-31T01:18:37;15.60;99.90
5011;DHT22;2524;54.364;10.072;2023-07-31T01:24:18;15.60;99.90
5011;DHT22;2524;54.364;10.072;2023-07-31T01:26:49;15.50;99.90
5011;DHT22;2524;54.364;10.072;2023-07-31T01:30:10;15.50;99.90
5011;DHT22;2524;54.364;10.072;2023-07-31T01:32:40;15.50;99.90
5011;DHT22;2524;54.364;10.072;2023-07-31T01:35:07;15.50;99.90
5011;DHT22;2524;54.364;10.072;2023-07-31T01:37:33;15.50;99.90
5011;DHT22;2524;54.364;10.072;2023-07-31T01:39:59;15.40;99.90
5011;DHT22;2524;54.364;10.072;2023-07-31T01:42:24;15.40;99.90
5011;DHT22;2524;54.364;10.072;2023-07-31T01:44:50;15.40;99.90
5011;DHT22;2524;54.364;10.072;2023-07-31T01:47:15;15.30;99.90
5011;DHT22;2524;54.364;10.072;2023-07-31T01:49:41;15.40;99.90
5011;DHT22;2524;54.364;10.072;2023-07-31T01:52:07;15.30;99.90
5011;DHT22;2524;54.364;10.072;2023-07-31T01:54:32;15.40;99.90
5011;DHT22;2524;54.364;10.072;2023-07-31T01:56:58;15.40;99.90
5011;DHT22;2524;54.364;10.072;2023-07-31T01:59:24;15.30;99.90
5011;DHT22;2524;54.364;10.072;2023-07-31T02:01:50;15.30;99.90
5011;DHT22;2524;54.364;10.072;2023-07-31T02:04:15;15.30;99.90
5011;DHT22;2524;54.364;10.072;2023-07-31T02:06:41;15.30;99.90
5011;DHT22;2524;54.364;10.072;2023-07-31T02:09:06;15.30;99.90
5011;DHT22;2524;54.364;10.072;2023-07-31T02:11:32;15.30;99.90
5011;DHT22;2524;54.364;10.072;2023-07-31T02:13:57;15.30;99.90
5011;DHT22;2524;54.364;10.072;2023-07-31T02:16:23;15.30;99.90
5011;DHT22;2524;54.364;10.072;2023-07-31T02:18:48;15.30;99.90
5011;DHT22;2524;54.364;10.072;2023-07-31T02:21:14;15.30;99.90
5011;DHT22;2524;54.364;10.072;2023-07-31T02:23:39;15.30;99.90
5011;DHT22;2524;54.364;10.072;2023-07-31T02:26:05;15.30;99.90
5011;DHT22;2524;54.364;10.072;2023-07-31T02:28:30;15.30;99.90
5011;DHT22;2524;54.364;10.072;2023-07-31T02:30:56;15.30;99.90
5011;DHT22;2524;54.364;10.072;2023-07-31T02:33:21;15.30;99.90
5011;DHT22;2524;54.364;10.072;2023-07-31T02:35:47;15.20;99.90
5011;DHT22;2524;54.364;10.072;2023-07-31T02:38:13;15.20;99.90
5011;DHT22;2524;54.364;10.072;2023-07-31T02:40:39;15.20;99.90
5011;DHT22;2524;54.364;10.072;2023-07-31T02:43:07;15.10;99.90
5011;DHT22;2524;54.364;10.072;2023-07-31T02:45:32;15.10;99.90
5011;DHT22;2524;54.364;10.072;2023-07-31T02:47:58;15.10;99.90
5011;DHT22;2524;54.364;10.072;2023-07-31T02:50:23;15.10;99.90
5011;DHT22;2524;54.364;10.072;2023-07-31T02:52:49;15.10;99.90
5011;DHT22;2524;54.364;10.072;2023-07-31T02:55:14;15.10;99.90
5011;DHT22;2524;54.364;10.072;2023-07-31T02:57:40;15.00;99.90
5011;DHT22;2524;54.364;10.072;2023-07-31T03:00:06;15.00;99.90
5011;DHT22;2524;54.364;10.072;2023-07-31T03:02:32;15.00;99.90
5011;DHT22;2524;54.364;10.072;2023-07-31T03:04:57;15.10;99.90
5011;DHT22;2524;54.364;10.072;2023-07-31T03:07:23;15.00;99.90
5011;DHT22;2524;54.364;10.072;2023-07-31T03:09:48;15.00;99.90
5011;DHT22;2524;54.364;10.072;2023-07-31T03:12:14;15.00;99.90
5011;DHT22;2524;54.364;10.072;2023-07-31T03:14:40;15.10;99.90
5011;DHT22;2524;54.364;10.072;2023-07-31T03:17:06;15.10;99.90
5011;DHT22;2524;54.364;10.072;2023-07-31T03:19:32;15.10;99.90
5011;DHT22;2524;54.364;10.072;2023-07-31T03:21:58;15.10;99.90
5011;DHT22;2524;54.364;10.072;2023-07-31T03:24:23;15.20;99.90
5011;DHT22;2524;54.364;10.072;2023-07-31T03:26:49;15.20;99.90
5011;DHT22;2524;54.364;10.072;2023-07-31T03:29:15;15.20;99.90
5011;DHT22;2524;54.364;10.072;2023-07-31T03:31:40;15.30;99.90
5011;DHT22;2524;54.364;10.072;2023-07-31T03:34:06;15.20;99.90
5011;DHT22;2524;54.364;10.072;2023-07-31T03:36:31;15.30;99.90
5011;DHT22;2524;54.364;10.072;2023-07-31T03:38:57;15.30;99.90
5011;DHT22;2524;54.364;10.072;2023-07-31T03:41:22;15.30;99.90
5011;DHT22;2524;54.364;10.072;2023-07-31T03:43:49;15.30;99.90
5011;DHT22;2524;54.364;10.072;2023-07-31T03:46:17;15.30;99.90
5011;DHT22;2524;54.364;10.072;2023-07-31T03:48:42;15.40;99.90
5011;DHT22;2524;54.364;10.072;2023-07-31T03:51:08;15.40;99.90
5011;DHT22;2524;54.364;10.072;2023-07-31T03:53:34;15.40;99.90
5011;DHT22;2524;54.364;10.072;2023-07-31T03:55:59;15.40;99.90
5011;DHT22;2524;54.364;10.072;2023-07-31T03:58:25;15.40;99.90
5011;DHT22;2524;54.364;10.072;2023-07-31T04:00:50;15.50;99.90
5011;DHT22;2524;54.364;10.072;2023-07-31T04:03:16;15.50;99.90
5011;DHT22;2524;54.364;10.072;2023-07-31T04:05:41;15.40;99.90
5011;DHT22;2524;54.364;10.072;2023-07-31T04:08:07;15.50;99.90
5011;DHT22;2524;54.364;10.072;2023-07-31T04:10:33;15.50;99.90
5011;DHT22;2524;54.364;10.072;2023-07-31T04:12:59;15.50;99.90
5011;DHT22;2524;54.364;10.072;2023-07-31T04:15:26;15.50;99.90
5011;DHT22;2524;54.364;10.072;2023-07-31T04:17:51;15.50;99.90
5011;DHT22;2524;54.364;10.072;2023-07-31T04:20:17;15.50;99.90
5011;DHT22;2524;54.364;10.072;2023-07-31T04:22:43;15.50;99.90
5011;DHT22;2524;54.364;10.072;2023-07-31T04:25:08;15.60;99.90
5011;DHT22;2524;54.364;10.072;2023-07-31T04:27:34;15.60;99.90
5011;DHT22;2524;54.364;10.072;2023-07-31T04:29:59;15.60;99.90
5011;DHT22;2524;54.364;10.072;2023-07-31T04:32:25;15.60;99.90
5011;DHT22;2524;54.364;10.072;2023-07-31T04:34:51;15.70;99.90
5011;DHT22;2524;54.364;10.072;2023-07-31T04:37:16;15.60;99.90
5011;DHT22;2524;54.364;10.072;2023-07-31T04:39:42;15.60;99.90
5011;DHT22;2524;54.364;10.072;2023-07-31T04:42:07;15.60;99.90
5011;DHT22;2524;54.364;10.072;2023-07-31T04:44:33;15.60;99.90
5011;DHT22;2524;54.364;10.072;2023-07-31T04:46:58;15.60;99.90
5011;DHT22;2524;54.364;10.072;2023-07-31T04:49:24;15.60;99.90
5011;DHT22;2524;54.364;10.072;2023-07-31T04:51:49;15.60;99.90
5011;DHT22;2524;54.364;10.072;2023-07-31T04:54:15;15.60;99.90
5011;DHT22;2524;54.364;10.072;2023-07-31T04:56:41;15.60;99.90
5011;DHT22;2524;54.364;10.072;2023-07-31T04:59:06;15.60;99.90
5011;DHT22;2524;54.364;10.072;2023-07-31T05:01:32;15.60;99.90
5011;DHT22;2524;54.364;10.072;2023-07-31T05:03:58;15.70;99.90
5011;DHT22;2524;54.364;10.072;2023-07-31T05:06:23;15.70;99.90
5011;DHT22;2524;54.364;10.072;2023-07-31T05:08:49;15.70;99.90
5011;DHT22;2524;54.364;10.072;2023-07-31T05:11:14;15.70;99.90
5011;DHT22;2524;54.364;10.072;2023-07-31T05:13:40;15.70;99.90
5011;DHT22;2524;54.364;10.072;2023-07-31T05:16:05;15.70;99.90
5011;DHT22;2524;54.364;10.072;2023-07-31T05:18:31;15.80;99.90
5011;DHT22;2524;54.364;10.072;2023-07-31T05:20:56;15.70;99.90
5011;DHT22;2524;54.364;10.072;2023-07-31T05:23:22;15.70;99.90
5011;DHT22;2524;54.364;10.072;2023-07-31T05:25:47;15.80;99.90
5011;DHT22;2524;54.364;10.072;2023-07-31T05:28:13;15.80;99.90
5011;DHT22;2524;54.364;10.072;2023-07-31T05:30:38;15.80;99.90
5011;DHT22;2524;54.364;10.072;2023-07-31T05:33:04;15.80;99.90
5011;DHT22;2524;54.364;10.072;2023-07-31T05:35:30;15.70;99.90
5011;DHT22;2524;54.364;10.072;2023-07-31T05:37:55;15.70;99.90
5011;DHT22;2524;54.364;10.072;2023-07-31T05:40:21;15.70;99.90
5011;DHT22;2524;54.364;10.072;2023-07-31T05:42:46;15.80;99.90
5011;DHT22;2524;54.364;10.072;2023-07-31T05:45:12;15.70;99.90
5011;DHT22;2524;54.364;10.072;2023-07-31T05:47:39;15.90;99.90
5011;DHT22;2524;54.364;10.072;2023-07-31T05:50:05;15.90;99.90
5011;DHT22;2524;54.364;10.072;2023-07-31T05:52:30;15.70;99.90
5011;DHT22;2524;54.364;10.072;2023-07-31T05:54:56;15.80;99.90
5011;DHT22;2524;54.364;10.072;2023-07-31T05:57:22;15.80;99.90
5011;DHT22;2524;54.364;10.072;2023-07-31T05:59:47;15.90;99.90
5011;DHT22;2524;54.364;10.072;2023-07-31T06:02:13;15.80;99.90
5011;DHT22;2524;54.364;10.072;2023-07-31T06:04:38;15.90;99.90
5011;DHT22;2524;54.364;10.072;2023-07-31T06:07:04;15.90;99.90
5011;DHT22;2524;54.364;10.072;2023-07-31T06:09:30;15.80;99.90
5011;DHT22;2524;54.364;10.072;2023-07-31T06:11:55;15.80;99.90
5011;DHT22;2524;54.364;10.072;2023-07-31T06:14:21;15.90;99.90
5011;DHT22;2524;54.364;10.072;2023-07-31T06:16:46;15.80;99.90
5011;DHT22;2524;54.364;10.072;2023-07-31T06:19:12;16.00;99.90
5011;DHT22;2524;54.364;10.072;2023-07-31T06:21:38;15.90;99.90
5011;DHT22;2524;54.364;10.072;2023-07-31T06:24:05;15.90;99.90
5011;DHT22;2524;54.364;10.072;2023-07-31T06:26:31;15.90;99.90
5011;DHT22;2524;54.364;10.072;2023-07-31T06:28:56;15.90;99.90
5011;DHT22;2524;54.364;10.072;2023-07-31T06:31:22;15.90;99.90
5011;DHT22;2524;54.364;10.072;2023-07-31T06:33:52;16.10;99.90
5011;DHT22;2524;54.364;10.072;2023-07-31T06:36:18;16.10;99.90
5011;DHT22;2524;54.364;10.072;2023-07-31T06:38:43;16.00;99.90
5011;DHT22;2524;54.364;10.072;2023-07-31T06:41:09;16.10;99.90
5011;DHT22;2524;54.364;10.072;2023-07-31T06:43:36;16.00;99.90
5011;DHT22;2524;54.364;10.072;2023-07-31T06:46:07;16.00;99.90
5011;DHT22;2524;54.364;10.072;2023-07-31T06:48:34;16.00;99.90
5011;DHT22;2524;54.364;10.072;2023-07-31T06:51:00;16.00;99.90
5011;DHT22;2524;54.364;10.072;2023-07-31T06:53:26;16.00;99.90
5011;DHT22;2524;54.364;10.072;2023-07-31T06:55:52;16.00;99.90
5011;DHT22;2524;54.364;10.072;2023-07-31T06:58:18;16.00;99.90
5011;DHT22;2524;54.364;10.072;2023-07-31T07:00:43;16.00;99.90
5011;DHT22;2524;54.364;10.072;2023-07-31T07:03:09;16.00;99.90
5011;DHT22;2524;54.364;10.072;2023-07-31T07:05:35;16.20;99.90
5011;DHT22;2524;54.364;10.072;2023-07-31T07:08:00;16.20;99.90
5011;DHT22;2524;54.364;10.072;2023-07-31T07:10:26;16.10;99.90
5011;DHT22;2524;54.364;10.072;2023-07-31T07:12:52;16.10;99.90
5011;DHT22;2524;54.364;10.072;2023-07-31T07:15:18;16.20;99.90
5011;DHT22;2524;54.364;10.072;2023-07-31T07:17:43;16.10;99.90
5011;DHT22;2524;54.364;10.072;2023-07-31T07:20:09;16.10;99.90
5011;DHT22;2524;54.364;10.072;2023-07-31T07:22:35;16.30;99.90
5011;DHT22;2524;54.364;10.072;2023-07-31T07:25:01;16.20;99.90
5011;DHT22;2524;54.364;10.072;2023-07-31T07:27:26;16.30;99.90
5011;DHT22;2524;54.364;10.072;2023-07-31T07:29:52;16.20;99.90
5011;DHT22;2524;54.364;10.072;2023-07-31T07:32:18;16.20;99.90
5011;DHT22;2524;54.364;10.072;2023-07-31T07:34:44;16.20;99.90
5011;DHT22;2524;54.364;10.072;2023-07-31T07:37:09;16.30;99.90
5011;DHT22;2524;54.364;10.072;2023-07-31T07:39:35;16.30;99.90
5011;DHT22;2524;54.364;10.072;2023-07-31T07:42:01;16.30;99.90
5011;DHT22;2524;54.364;10.072;2023-07-31T07:44:26;16.30;99.90
5011;DHT22;2524;54.364;10.072;2023-07-31T07:46:52;16.30;99.90
5011;DHT22;2524;54.364;10.072;2023-07-31T07:49:17;16.30;99.90
5011;DHT22;2524;54.364;10.072;2023-07-31T07:51:43;16.30;99.90
5011;DHT22;2524;54.364;10.072;2023-07-31T07:54:09;16.30;99.90
5011;DHT22;2524;54.364;10.072;2023-07-31T07:56:34;16.40;99.90
5011;DHT22;2524;54.364;10.072;2023-07-31T07:59:01;16.40;99.90
5011;DHT22;2524;54.364;10.072;2023-07-31T08:01:27;16.30;99.90
5011;DHT22;2524;54.364;10.072;2023-07-31T08:03:52;16.30;99.90
5011;DHT22;2524;54.364;10.072;2023-07-31T08:06:18;16.50;99.90
5011;DHT22;2524;54.364;10.072;2023-07-31T08:08:44;16.40;99.90
5011;DHT22;2524;54.364;10.072;2023-07-31T08:11:09;16.40;99.90
5011;DHT22;2524;54.364;10.072;2023-07-31T08:13:35;16.30;99.90
5011;DHT22;2524;54.364;10.072;2023-07-31T08:16:03;16.50;99.90
5011;DHT22;2524;54.364;10.072;2023-07-31T08:18:28;16.40;99.90
5011;DHT22;2524;54.364;10.072;2023-07-31T08:20:54;16.40;99.90
5011;DHT22;2524;54.364;10.072;2023-07-31T08:23:19;16.50;99.90
5011;DHT22;2524;54.364;10.072;2023-07-31T08:25:45;16.40;99.90
5011;DHT22;2524;54.364;10.072;2023-07-31T08:28:11;16.50;99.90
5011;DHT22;2524;54.364;10.072;2023-07-31T08:30:37;16.40;99.90
5011;DHT22;2524;54.364;10.072;2023-07-31T08:33:02;16.40;99.90
5011;DHT22;2524;54.364;10.072;2023-07-31T08:35:28;16.50;99.90
5011;DHT22;2524;54.364;10.072;2023-07-31T08:37:54;16.50;99.90
5011;DHT22;2524;54.364;10.072;2023-07-31T08:40:19;16.50;99.90
5011;DHT22;2524;54.364;10.072;2023-07-31T08:42:48;16.50;99.90
5011;DHT22;2524;54.364;10.072;2023-07-31T08:45:17;16.60;99.90
5011;DHT22;2524;54.364;10.072;2023-07-31T08:47:48;16.50;99.90
5011;DHT22;2524;54.364;10.072;2023-07-31T08:50:15;16.50;99.90
5011;DHT22;2524;54.364;10.072;2023-07-31T08:52:40;16.50;99.90
5011;DHT22;2524;54.364;10.072;2023-07-31T08:55:07;16.60;99.90
5011;DHT22;2524;54.364;10.072;2023-07-31T08:57:34;16.50;99.90
5011;DHT22;2524;54.364;10.072;2023-07-31T09:00:01;16.50;99.90
5011;DHT22;2524;54.364;10.072;2023-07-31T09:02:34;16.60;99.90
5011;DHT22;2524;54.364;10.072;2023-07-31T09:05:01;16.60;99.90
5011;DHT22;2524;54.364;10.072;2023-07-31T09:07:28;16.60;99.90
5011;DHT22;2524;54.364;10.072;2023-07-31T09:09:54;16.60;99.90
5011;DHT22;2524;54.364;10.072;2023-07-31T09:12:20;16.60;99.90
5011;DHT22;2524;54.364;10.072;2023-07-31T09:14:46;16.70;99.90
5011;DHT22;2524;54.364;10.072;2023-07-31T09:17:12;16.60;99.90
5011;DHT22;2524;54.364;10.072;2023-07-31T09:19:38;16.60;99.90
5011;DHT22;2524;54.364;10.072;2023-07-31T09:22:07;16.60;99.90
5011;DHT22;2524;54.364;10.072;2023-07-31T09:24:33;16.60;99.90
5011;DHT22;2524;54.364;10.072;2023-07-31T09:27:00;16.80;99.90
5011;DHT22;2524;54.364;10.072;2023-07-31T09:29:27;16.60;99.90
5011;DHT22;2524;54.364;10.072;2023-07-31T09:31:54;16.70;99.90
5011;DHT22;2524;54.364;10.072;2023-07-31T09:34:20;16.70;99.90
5011;DHT22;2524;54.364;10.072;2023-07-31T09:36:53;16.70;99.90
5011;DHT22;2524;54.364;10.072;2023-07-31T09:39:19;16.60;99.90
5011;DHT22;2524;54.364;10.072;2023-07-31T09:41:53;16.60;99.90
5011;DHT22;2524;54.364;10.072;2023-07-31T09:44:19;16.60;99.90
5011;DHT22;2524;54.364;10.072;2023-07-31T09:46:45;16.60;99.90
5011;DHT22;2524;54.364;10.072;2023-07-31T09:49:13;16.60;99.90
5011;DHT22;2524;54.364;10.072;2023-07-31T09:51:40;16.80;99.90
5011;DHT22;2524;54.364;10.072;2023-07-31T09:54:10;16.70;99.90
5011;DHT22;2524;54.364;10.072;2023-07-31T09:56:44;16.70;99.90
5011;DHT22;2524;54.364;10.072;2023-07-31T09:59:18;16.70;99.90
5011;DHT22;2524;54.364;10.072;2023-07-31T10:01:45;16.70;99.90
5011;DHT22;2524;54.364;10.072;2023-07-31T10:04:12;16.70;99.90
5011;DHT22;2524;54.364;10.072;2023-07-31T10:06:40;16.70;99.90
5011;DHT22;2524;54.364;10.072;2023-07-31T10:09:07;16.70;99.90
5011;DHT22;2524;54.364;10.072;2023-07-31T10:11:42;16.80;99.90
5011;DHT22;2524;54.364;10.072;2023-07-31T10:14:10;16.70;99.90
5011;DHT22;2524;54.364;10.072;2023-07-31T10:16:38;16.70;99.90
5011;DHT22;2524;54.364;10.072;2023-07-31T10:19:05;16.70;99.90
5011;DHT22;2524;54.364;10.072;2023-07-31T10:21:31;16.70;99.90
5011;DHT22;2524;54.364;10.072;2023-07-31T10:24:03;16.80;99.90
5011;DHT22;2524;54.364;10.072;2023-07-31T10:26:29;16.80;99.90
5011;DHT22;2524;54.364;10.072;2023-07-31T10:28:56;16.80;99.90
5011;DHT22;2524;54.364;10.072;2023-07-31T10:31:24;16.80;99.90
5011;DHT22;2524;54.364;10.072;2023-07-31T10:33:51;16.80;99.90
5011;DHT22;2524;54.364;10.072;2023-07-31T10:36:20;16.80;99.90
5011;DHT22;2524;54.364;10.072;2023-07-31T10:38:49;16.90;99.90
5011;DHT22;2524;54.364;10.072;2023-07-31T10:41:15;16.90;99.90
5011;DHT22;2524;54.364;10.072;2023-07-31T10:43:41;17.00;99.90
5011;DHT22;2524;54.364;10.072;2023-07-31T10:46:16;17.10;99.90
5011;DHT22;2524;54.364;10.072;2023-07-31T10:48:42;17.00;99.90
5011;DHT22;2524;54.364;10.072;2023-07-31T10:51:09;17.00;99.90
5011;DHT22;2524;54.364;10.072;2023-07-31T10:53:39;17.00;99.90
5011;DHT22;2524;54.364;10.072;2023-07-31T10:56:06;17.00;99.90
5011;DHT22;2524;54.364;10.072;2023-07-31T10:58:32;17.00;99.90
5011;DHT22;2524;54.364;10.072;2023-07-31T11:01:00;17.10;99.90
5011;DHT22;2524;54.364;10.072;2023-07-31T11:03:29;17.00;99.90
5011;DHT22;2524;54.364;10.072;2023-07-31T11:06:05;17.00;99.90
5011;DHT22;2524;54.364;10.072;2023-07-31T11:08:33;17.10;99.90
5011;DHT22;2524;54.364;10.072;2023-07-31T11:13:28;17.00;99.90
5011;DHT22;2524;54.364;10.072;2023-07-31T11:15:54;17.00;99.90
5011;DHT22;2524;54.364;10.072;2023-07-31T11:18:19;17.00;99.90
5011;DHT22;2524;54.364;10.072;2023-07-31T11:20:45;17.00;99.90
5011;DHT22;2524;54.364;10.072;2023-07-31T11:23:11;17.00;99.90
5011;DHT22;2524;54.364;10.072;2023-07-31T11:25:39;17.10;99.90
5011;DHT22;2524;54.364;10.072;2023-07-31T11:28:13;17.20;99.90
5011;DHT22;2524;54.364;10.072;2023-07-31T11:30:43;17.10;99.90
5011;DHT22;2524;54.364;10.072;2023-07-31T11:33:11;17.10;99.90
5011;DHT22;2524;54.364;10.072;2023-07-31T11:35:45;17.10;99.90
5011;DHT22;2524;54.364;10.072;2023-07-31T11:38:12;17.10;99.90
5011;DHT22;2524;54.364;10.072;2023-07-31T11:40:42;17.10;99.90
5011;DHT22;2524;54.364;10.072;2023-07-31T11:43:08;17.20;99.90
5011;DHT22;2524;54.364;10.072;2023-07-31T11:45:34;17.10;99.90
5011;DHT22;2524;54.364;10.072;2023-07-31T11:48:00;17.10;99.90
5011;DHT22;2524;54.364;10.072;2023-07-31T11:50:26;17.10;99.90
5011;DHT22;2524;54.364;10.072;2023-07-31T11:53:01;17.10;99.90
5011;DHT22;2524;54.364;10.072;2023-07-31T11:55:28;17.20;99.90
5011;DHT22;2524;54.364;10.072;2023-07-31T11:57:56;17.30;99.90
5011;DHT22;2524;54.364;10.072;2023-07-31T12:00:22;17.20;99.90
5011;DHT22;2524;54.364;10.072;2023-07-31T12:02:49;17.20;99.90
5011;DHT22;2524;54.364;10.072;2023-07-31T12:05:15;17.10;99.90
5011;DHT22;2524;54.364;10.072;2023-07-31T12:07:50;17.10;99.90
5011;DHT22;2524;54.364;10.072;2023-07-31T12:10:26;17.10;99.90
5011;DHT22;2524;54.364;10.072;2023-07-31T12:13:07;17.10;99.90
5011;DHT22;2524;54.364;10.072;2023-07-31T12:15:38;17.00;99.90
5011;DHT22;2524;54.364;10.072;2023-07-31T12:18:07;17.00;99.90
5011;DHT22;2524;54.364;10.072;2023-07-31T12:20:33;17.00;99.90
5011;DHT22;2524;54.364;10.072;2023-07-31T12:22:59;17.00;99.90
5011;DHT22;2524;54.364;10.072;2023-07-31T12:25:32;16.90;99.90
5011;DHT22;2524;54.364;10.072;2023-07-31T12:28:03;16.90;99.90
5011;DHT22;2524;54.364;10.072;2023-07-31T12:30:31;17.00;99.90
5011;DHT22;2524;54.364;10.072;2023-07-31T12:32:57;16.80;99.90
5011;DHT22;2524;54.364;10.072;2023-07-31T12:35:23;16.90;99.90
5011;DHT22;2524;54.364;10.072;2023-07-31T12:37:48;16.80;99.90
5011;DHT22;2524;54.364;10.072;2023-07-31T12:40:14;16.90;99.90
5011;DHT22;2524;54.364;10.072;2023-07-31T12:42:41;16.90;99.90
5011;DHT22;2524;54.364;10.072;2023-07-31T12:45:07;16.90;99.90
5011;DHT22;2524;54.364;10.072;2023-07-31T12:47:33;16.90;99.90
5011;DHT22;2524;54.364;10.072;2023-07-31T12:49:58;17.00;99.90
5011;DHT22;2524;54.364;10.072;2023-07-31T12:52:24;17.10;99.90
5011;DHT22;2524;54.364;10.072;2023-07-31T12:54:49;17.10;99.90
5011;DHT22;2524;54.364;10.072;2023-07-31T12:57:15;17.10;99.90
5011;DHT22;2524;54.364;10.072;2023-07-31T12:59:40;17.20;99.90
5011;DHT22;2524;54.364;10.072;2023-07-31T13:02:06;17.00;99.90
5011;DHT22;2524;54.364;10.072;2023-07-31T13:04:32;17.00;99.90
5011;DHT22;2524;54.364;10.072;2023-07-31T13:06:57;17.00;99.90
5011;DHT22;2524;54.364;10.072;2023-07-31T13:09:23;17.10;99.90
5011;DHT22;2524;54.364;10.072;2023-07-31T13:11:49;17.10;99.90
5011;DHT22;2524;54.364;10.072;2023-07-31T13:14:14;17.00;99.90
5011;DHT22;2524;54.364;10.072;2023-07-31T13:16:40;17.00;99.90
5011;DHT22;2524;54.364;10.072;2023-07-31T13:19:05;17.00;99.90
5011;DHT22;2524;54.364;10.072;2023-07-31T13:21:31;17.00;99.90
5011;DHT22;2524;54.364;10.072;2023-07-31T13:23:57;17.10;99.90
5011;DHT22;2524;54.364;10.072;2023-07-31T13:26:24;17.00;99.90
5011;DHT22;2524;54.364;10.072;2023-07-31T13:28:50;17.00;99.90
5011;DHT22;2524;54.364;10.072;2023-07-31T13:31:15;17.00;99.90
5011;DHT22;2524;54.364;10.072;2023-07-31T13:33:41;17.10;99.90
5011;DHT22;2524;54.364;10.072;2023-07-31T13:36:06;17.00;99.90
5011;DHT22;2524;54.364;10.072;2023-07-31T13:38:32;17.10;99.90
5011;DHT22;2524;54.364;10.072;2023-07-31T13:40:57;17.10;99.90
5011;DHT22;2524;54.364;10.072;2023-07-31T13:43:24;17.10;99.90
5011;DHT22;2524;54.364;10.072;2023-07-31T13:45:49;17.10;99.90
5011;DHT22;2524;54.364;10.072;2023-07-31T13:48:15;17.10;99.90
5011;DHT22;2524;54.364;10.072;2023-07-31T13:50:40;17.10;99.90
5011;DHT22;2524;54.364;10.072;2023-07-31T13:53:06;17.10;99.90
5011;DHT22;2524;54.364;10.072;2023-07-31T13:55:31;17.00;99.90
5011;DHT22;2524;54.364;10.072;2023-07-31T13:57:57;17.00;99.90
5011;DHT22;2524;54.364;10.072;2023-07-31T14:00:22;17.00;99.90
5011;DHT22;2524;54.364;10.072;2023-07-31T14:02:48;17.10;99.90
5011;DHT22;2524;54.364;10.072;2023-07-31T14:05:14;17.00;99.90
5011;DHT22;2524;54.364;10.072;2023-07-31T14:07:39;17.10;99.90
5011;DHT22;2524;54.364;10.072;2023-07-31T14:10:05;17.00;99.90
5011;DHT22;2524;54.364;10.072;2023-07-31T14:12:31;17.10;99.90
5011;DHT22;2524;54.364;10.072;2023-07-31T14:14:56;17.20;99.90
5011;DHT22;2524;54.364;10.072;2023-07-31T14:17:22;17.40;99.90
5011;DHT22;2524;54.364;10.072;2023-07-31T14:19:47;17.40;99.90
5011;DHT22;2524;54.364;10.072;2023-07-31T14:22:13;17.40;99.90
5011;DHT22;2524;54.364;10.072;2023-07-31T14:24:38;17.50;99.90
5011;DHT22;2524;54.364;10.072;2023-07-31T14:27:04;17.60;99.90
5011;DHT22;2524;54.364;10.072;2023-07-31T14:29:30;17.60;99.90
5011;DHT22;2524;54.364;10.072;2023-07-31T14:31:55;17.60;99.90
5011;DHT22;2524;54.364;10.072;2023-07-31T14:34:21;17.70;99.90
5011;DHT22;2524;54.364;10.072;2023-07-31T14:36:46;17.70;99.90
5011;DHT22;2524;54.364;10.072;2023-07-31T14:39:12;17.70;99.90
5011;DHT22;2524;54.364;10.072;2023-07-31T14:41:38;17.70;99.90
5011;DHT22;2524;54.364;10.072;2023-07-31T14:44:03;17.80;99.90
5011;DHT22;2524;54.364;10.072;2023-07-31T14:53:47;17.80;99.90
5011;DHT22;2524;54.364;10.072;2023-07-31T14:56:12;17.90;99.90
5011;DHT22;2524;54.364;10.072;2023-07-31T14:58:38;17.90;99.90
5011;DHT22;2524;54.364;10.072;2023-07-31T15:01:04;17.90;99.90
5011;DHT22;2524;54.364;10.072;2023-07-31T15:03:29;17.90;99.90
5011;DHT22;2524;54.364;10.072;2023-07-31T15:05:55;17.90;99.90
5011;DHT22;2524;54.364;10.072;2023-07-31T15:08:21;17.80;99.90
5011;DHT22;2524;54.364;10.072;2023-07-31T15:10:46;17.80;99.90
5011;DHT22;2524;54.364;10.072;2023-07-31T15:13:12;17.80;99.90
5011;DHT22;2524;54.364;10.072;2023-07-31T15:15:37;17.80;99.90
5011;DHT22;2524;54.364;10.072;2023-07-31T15:18:03;17.80;99.90
5011;DHT22;2524;54.364;10.072;2023-07-31T15:20:28;17.80;99.90
5011;DHT22;2524;54.364;10.072;2023-07-31T15:22:55;17.80;99.90
5011;DHT22;2524;54.364;10.072;2023-07-31T15:25:20;17.80;99.90
5011;DHT22;2524;54.364;10.072;2023-07-31T15:27:46;17.90;99.90
5011;DHT22;2524;54.364;10.072;2023-07-31T15:30:12;17.70;99.90
5011;DHT22;2524;54.364;10.072;2023-07-31T15:32:38;17.60;99.90
5011;DHT22;2524;54.364;10.072;2023-07-31T15:35:05;17.60;99.90
5011;DHT22;2524;54.364;10.072;2023-07-31T15:37:30;17.60;99.90
5011;DHT22;2524;54.364;10.072;2023-07-31T15:39:56;17.70;99.90
5011;DHT22;2524;54.364;10.072;2023-07-31T15:42:21;17.60;99.90
5011;DHT22;2524;54.364;10.072;2023-07-31T15:44:47;17.60;99.90
5011;DHT22;2524;54.364;10.072;2023-07-31T15:47:12;17.60;99.90
5011;DHT22;2524;54.364;10.072;2023-07-31T15:49:40;17.60;99.90
5011;DHT22;2524;54.364;10.072;2023-07-31T15:52:06;17.70;99.90
5011;DHT22;2524;54.364;10.072;2023-07-31T15:54:32;17.70;99.90
5011;DHT22;2524;54.364;10.072;2023-07-31T15:56:58;17.70;99.90